Time;durP1;ratioP1;P1;durP2;ratioP2;P2;SDS_P1;SDS_P2;PMS_P1;PMS_P2;Temp;Humidity;BMP_temperature;BMP_pressure;BME280_temperature;BME280_humidity;BME280_pressure;Samples;Min_cycle;Max_cycle;Signal;HPM_P1;HPM_P2
2023/12/02 00:00:41;;;;;;;59.40;41.00;;;;;;;-0.79;100.00;97704.42;109551;1251;67321;-74
2023/12/02 00:03:27;;;;;;;55.90;38.90;;;;;;;-0.79;100.00;97699.52;109302;1251;61692;-74
2023/12/02 00:05:54;;;;;;;60.50;40.50;;;;;;;-0.80;100.00;97701.30;109548;1251;65050;-73
2023/12/02 00:08:22;;;;;;;54.30;37.80;;;;;;;-0.80;100.00;97702.20;109571;1251;58919;-74
2023/12/02 00:10:49;;;;;;;57.00;40.80;;;;;;;-0.81;100.00;97707.64;109595;1251;59107;-73
2023/12/02 00:13:15;;;;;;;57.50;39.40;;;;;;;-0.81;100.00;97702.92;109569;1251;67196;-74
2023/12/02 00:15:42;;;;;;;52.70;37.80;;;;;;;-0.79;100.00;97695.17;108821;1251;1002422;-74
2023/12/02 00:18:08;;;;;;;64.60;42.40;;;;;;;-0.77;100.00;97688.98;109535;1251;64073;-74
2023/12/02 00:20:35;;;;;;;56.80;39.90;;;;;;;-0.76;100.00;97684.23;109572;1251;58886;-75
2023/12/02 00:23:02;;;;;;;60.00;40.60;;;;;;;-0.76;100.00;97676.23;109583;1251;59142;-75
2023/12/02 00:25:28;;;;;;;59.80;40.50;;;;;;;-0.75;100.00;97674.60;109544;1251;67250;-75
2023/12/02 00:27:55;;;;;;;58.60;41.10;;;;;;;-0.74;100.00;97664.79;108829;1251;1003190;-75
2023/12/02 00:30:22;;;;;;;63.70;41.90;;;;;;;-0.74;100.00;97655.71;109528;1251;64022;-76
2023/12/02 00:32:48;;;;;;;62.80;42.20;;;;;;;-0.75;100.00;97644.07;109344;1251;58985;-74
2023/12/02 00:35:15;;;;;;;63.10;39.90;;;;;;;-0.78;100.00;97637.05;109621;1251;59144;-75
2023/12/02 00:37:42;;;;;;;63.40;39.90;;;;;;;-0.80;100.00;97648.66;109556;1251;65996;-75
2023/12/02 00:40:09;;;;;;;66.60;41.80;;;;;;;-0.81;100.00;97652.73;109530;1251;60822;-74
2023/12/02 00:42:36;;;;;;;64.50;41.90;;;;;;;-0.82;100.00;97649.25;109556;1251;65184;-75
2023/12/02 00:45:02;;;;;;;62.30;41.30;;;;;;;-0.81;100.00;97655.00;109568;1251;58944;-75
2023/12/02 00:47:29;;;;;;;65.30;41.50;;;;;;;-0.81;100.00;97660.55;109625;1251;59214;-75
2023/12/02 00:49:56;;;;;;;64.10;42.30;;;;;;;-0.79;100.00;97660.98;109581;1251;66959;-75
2023/12/02 00:52:22;;;;;;;65.60;43.00;;;;;;;-0.78;100.00;97658.70;109630;1251;60928;-74
2023/12/02 00:54:49;;;;;;;64.00;42.20;;;;;;;-0.77;100.00;97668.41;109611;1251;65342;-75
2023/12/02 00:57:15;;;;;;;59.10;41.30;;;;;;;-0.76;100.00;97682.14;109363;1251;59015;-74
2023/12/02 00:59:42;;;;;;;73.60;48.00;;;;;;;-0.76;100.00;97689.14;109571;1251;59364;-74
2023/12/02 01:02:10;;;;;;;70.80;46.80;;;;;;;-0.76;100.00;97687.39;109573;1251;67182;-75
2023/12/02 01:04:37;;;;;;;71.70;45.80;;;;;;;-0.76;100.00;97683.71;109598;1251;60380;-75
2023/12/02 01:07:03;;;;;;;76.30;47.30;;;;;;;-0.76;100.00;97686.17;109368;1251;64518;-75
2023/12/02 01:09:30;;;;;;;69.30;47.20;;;;;;;-0.76;100.00;97696.44;109591;1251;59093;-74
2023/12/02 01:11:57;;;;;;;68.10;46.00;;;;;;;-0.76;100.00;97690.33;109594;1251;59288;-75
2023/12/02 01:14:25;;;;;;;64.50;43.60;;;;;;;-0.75;100.00;97687.52;109544;1251;65941;-74
2023/12/02 01:16:52;;;;;;;65.60;43.40;;;;;;;-0.75;100.00;97681.77;109578;1251;60999;-74
2023/12/02 01:19:18;;;;;;;59.50;40.30;;;;;;;-0.76;100.00;97665.23;109238;1251;65322;-74
2023/12/02 01:21:45;;;;;;;61.80;41.70;;;;;;;-0.77;100.00;97643.67;109585;1251;59279;-74
2023/12/02 01:24:12;;;;;;;59.70;39.00;;;;;;;-0.80;100.00;97644.30;109575;1251;58986;-74
2023/12/02 01:26:38;;;;;;;54.80;37.50;;;;;;;-0.81;100.00;97657.80;109588;1250;67158;-74
2023/12/02 01:29:05;;;;;;;52.40;36.60;;;;;;;-0.82;100.00;97642.27;109572;1251;60771;-74
2023/12/02 01:31:31;;;;;;;55.10;38.40;;;;;;;-0.82;100.00;97628.70;109565;1251;65184;-74
2023/12/02 01:33:58;;;;;;;56.60;36.90;;;;;;;-0.86;100.00;97619.96;109538;1251;59081;-74
2023/12/02 01:36:24;;;;;;;49.20;34.10;;;;;;;-0.89;100.00;97621.15;109557;1251;59034;-75
2023/12/02 01:38:51;;;;;;;47.90;29.90;;;;;;;-0.92;100.00;97626.50;109585;1251;66018;-75
2023/12/02 01:41:18;;;;;;;53.90;35.90;;;;;;;-0.95;100.00;97634.66;109426;1251;60754;-75
2023/12/02 01:43:45;;;;;;;47.10;32.90;;;;;;;-0.97;100.00;97643.09;109579;1251;64856;-74
2023/12/02 01:46:14;;;;;;;50.30;33.60;;;;;;;-0.97;100.00;97647.48;109547;1251;58962;-75
2023/12/02 01:48:41;;;;;;;46.90;32.60;;;;;;;-0.98;100.00;97643.14;109542;1251;59359;-75
2023/12/02 01:51:08;;;;;;;51.00;33.20;;;;;;;-0.99;100.00;97637.42;109572;1250;67250;-74
2023/12/02 01:53:35;;;;;;;48.30;33.00;;;;;;;-0.99;100.00;97644.27;109611;1251;61038;-75
2023/12/02 01:56:01;;;;;;;48.40;33.00;;;;;;;-1.00;100.00;97652.64;109382;1251;64599;-74
2023/12/02 01:58:28;;;;;;;45.00;33.10;;;;;;;-0.99;100.00;97639.02;109526;1251;59110;-74
2023/12/02 02:00:55;;;;;;;46.50;30.30;;;;;;;-1.00;100.00;97621.25;109546;1251;58896;-75
2023/12/02 02:03:21;;;;;;;42.10;29.90;;;;;;;-1.01;100.00;97611.39;109604;1251;66976;-73
2023/12/02 02:05:48;;;;;;;42.40;30.30;;;;;;;-1.02;100.00;97622.76;109609;1251;61060;-74
2023/12/02 02:08:14;;;;;;;44.20;32.50;;;;;;;-1.03;100.00;97631.31;109548;1251;64792;-74
2023/12/02 02:10:41;;;;;;;41.30;29.60;;;;;;;-1.04;100.00;97633.13;109511;1251;59228;-74
2023/12/02 02:13:08;;;;;;;46.50;32.10;;;;;;;-1.05;100.00;97632.30;109552;1251;58965;-74
2023/12/02 02:15:34;;;;;;;48.20;32.80;;;;;;;-1.05;100.00;97624.45;109579;1251;65982;-74
2023/12/02 02:18:01;;;;;;;46.40;31.30;;;;;;;-1.06;100.00;97626.39;108841;1250;1003000;-74
2023/12/02 02:20:28;;;;;;;45.20;30.90;;;;;;;-1.05;100.00;97625.50;109583;1251;65250;-74
2023/12/02 02:22:54;;;;;;;42.20;29.40;;;;;;;-1.04;100.00;97630.48;109536;1251;58970;-73
2023/12/02 02:25:21;;;;;;;45.20;32.10;;;;;;;-1.03;100.00;97635.88;109613;1251;58989;-74
2023/12/02 02:27:47;;;;;;;44.60;30.70;;;;;;;-1.03;100.00;97627.17;109348;1251;65918;-74
2023/12/02 02:30:14;;;;;;;48.60;33.50;;;;;;;-1.05;100.00;97602.15;109592;1251;59977;-74
2023/12/02 02:32:41;;;;;;;48.70;33.00;;;;;;;-1.07;100.00;97570.31;109528;1250;65111;-74
2023/12/02 02:35:07;;;;;;;42.70;31.60;;;;;;;-1.09;100.00;97553.13;109251;1251;59283;-74
2023/12/02 02:37:34;;;;;;;54.20;34.50;;;;;;;-1.10;100.00;97564.54;109570;1251;59044;-74
2023/12/02 02:40:01;;;;;;;51.50;35.40;;;;;;;-1.11;100.00;97567.36;109594;1251;65973;-74
2023/12/02 02:42:29;;;;;;;50.70;34.70;;;;;;;-1.12;100.00;97576.62;109539;1251;61091;-73
2023/12/02 02:44:56;;;;;;;53.90;37.60;;;;;;;-1.12;100.00;97599.64;109564;1251;65036;-74
2023/12/02 02:47:22;;;;;;;53.70;36.60;;;;;;;-1.12;100.00;97618.45;109597;1251;59161;-74
2023/12/02 02:49:49;;;;;;;54.10;38.40;;;;;;;-1.11;100.00;97618.95;109533;1251;58982;-74
2023/12/02 02:52:15;;;;;;;54.00;38.30;;;;;;;-1.11;100.00;97609.70;109478;1251;65857;-74
2023/12/02 02:54:42;;;;;;;52.90;37.50;;;;;;;-1.10;100.00;97584.39;109555;1251;59857;-74
2023/12/02 02:57:09;;;;;;;51.10;36.80;;;;;;;-1.09;100.00;97563.26;109536;1251;64043;-75
2023/12/02 02:59:36;;;;;;;55.00;36.50;;;;;;;-1.09;100.00;97566.23;109532;1251;58998;-74
2023/12/02 03:02:03;;;;;;;55.00;35.40;;;;;;;-1.10;100.00;97592.23;109376;1251;59187;-74
2023/12/02 03:04:29;;;;;;;52.10;35.90;;;;;;;-1.09;100.00;97608.60;109612;1251;67243;-75
2023/12/02 03:06:56;;;;;;;51.40;34.70;;;;;;;-1.09;100.00;97612.24;109573;1251;60771;-75
2023/12/02 03:09:22;;;;;;;53.30;34.40;;;;;;;-1.08;100.00;97613.94;109580;1251;64011;-75
2023/12/02 03:11:50;;;;;;;48.10;32.80;;;;;;;-1.08;100.00;97610.97;109583;1252;58978;-74
2023/12/02 03:14:17;;;;;;;51.80;34.50;;;;;;;-1.08;100.00;97604.88;109621;1251;58881;-74
2023/12/02 03:16:43;;;;;;;46.20;33.50;;;;;;;-1.08;100.00;97600.35;109582;1251;66103;-74
2023/12/02 03:19:10;;;;;;;48.70;34.40;;;;;;;-1.08;100.00;97602.97;109608;1251;61154;-73
2023/12/02 03:21:36;;;;;;;46.30;32.70;;;;;;;-1.08;100.00;97607.30;109584;1251;65059;-74
2023/12/02 03:24:03;;;;;;;50.30;35.00;;;;;;;-1.08;100.00;97619.00;109569;1253;59001;-74
2023/12/02 03:26:30;;;;;;;46.10;32.90;;;;;;;-1.08;100.00;97629.11;109566;1251;59048;-74
2023/12/02 03:28:57;;;;;;;46.70;33.10;;;;;;;-1.06;100.00;97627.98;109607;1251;66678;-74
2023/12/02 03:31:23;;;;;;;48.10;31.70;;;;;;;-1.05;100.00;97621.13;109598;1250;59976;-74
2023/12/02 03:33:50;;;;;;;47.90;32.60;;;;;;;-1.04;100.00;97618.66;109546;1251;63835;-74
2023/12/02 03:36:16;;;;;;;49.40;32.40;;;;;;;-1.05;100.00;97621.83;109388;1251;59362;-74
2023/12/02 03:38:43;;;;;;;46.50;32.40;;;;;;;-1.05;100.00;97619.21;109631;1251;58938;-74
2023/12/02 03:41:10;;;;;;;40.90;29.50;;;;;;;-1.04;100.00;97602.98;109391;1251;66274;-74
2023/12/02 03:43:37;;;;;;;43.70;30.30;;;;;;;-1.04;100.00;97590.77;109551;1251;61119;-74
2023/12/02 03:46:03;;;;;;;42.20;29.60;;;;;;;-1.04;100.00;97590.77;109527;1251;65023;-73
2023/12/02 03:48:30;;;;;;;41.50;28.90;;;;;;;-1.05;100.00;97596.40;109648;1250;58990;-74
2023/12/02 03:50:59;;;;;;;41.70;30.00;;;;;;;-1.06;100.00;97602.02;109240;1251;59072;-74
2023/12/02 03:53:25;;;;;;;43.50;30.10;;;;;;;-1.06;100.00;97601.16;109517;1251;75773;-74
2023/12/02 03:55:53;;;;;;;39.40;28.60;;;;;;;-1.06;100.00;97591.21;109444;1250;171455;-74
2023/12/02 03:58:20;;;;;;;40.50;29.10;;;;;;;-1.07;100.00;97588.13;109617;1251;64977;-75
2023/12/02 04:00:46;;;;;;;42.60;29.50;;;;;;;-1.08;100.00;97594.42;109564;1251;58943;-73
2023/12/02 04:03:13;;;;;;;45.40;31.70;;;;;;;-1.07;100.00;97595.09;109610;1251;59191;-74
2023/12/02 04:05:41;;;;;;;44.70;29.80;;;;;;;-1.06;100.00;97589.28;109549;1251;66801;-74
2023/12/02 04:08:09;;;;;;;39.70;27.20;;;;;;;-1.05;100.00;97595.15;109589;1250;60064;-74
2023/12/02 04:10:35;;;;;;;42.60;30.70;;;;;;;-1.05;100.00;97600.91;109575;1251;65024;-75
2023/12/02 04:13:03;;;;;;;43.70;31.10;;;;;;;-1.03;100.00;97602.91;109545;1253;58988;-74
2023/12/02 04:15:30;;;;;;;47.50;33.10;;;;;;;-1.00;100.00;97610.81;108826;1251;1002239;-74
2023/12/02 04:17:57;;;;;;;45.90;32.30;;;;;;;-0.99;100.00;97616.51;109555;1250;67101;-75
2023/12/02 04:20:24;;;;;;;45.10;32.50;;;;;;;-0.99;100.00;97619.30;109614;1251;60940;-74
2023/12/02 04:22:50;;;;;;;48.50;33.10;;;;;;;-0.98;100.00;97619.27;109599;1251;65088;-74
2023/12/02 04:25:17;;;;;;;44.90;31.60;;;;;;;-0.97;100.00;97614.18;109583;1251;59029;-75
2023/12/02 04:27:44;;;;;;;46.20;31.90;;;;;;;-0.98;100.00;97597.66;109399;1251;59075;-74
2023/12/02 04:30:11;;;;;;;45.60;31.80;;;;;;;-1.00;100.00;97592.88;109614;1250;66965;-74
2023/12/02 04:32:37;;;;;;;48.00;34.30;;;;;;;-1.02;100.00;97584.05;109594;1250;60311;-74
2023/12/02 04:35:05;;;;;;;50.80;34.50;;;;;;;-1.03;100.00;97575.21;109576;1251;65081;-74
2023/12/02 04:37:32;;;;;;;47.60;34.10;;;;;;;-1.03;100.00;97571.38;109356;1251;59103;-74
2023/12/02 04:39:58;;;;;;;47.30;32.80;;;;;;;-1.02;100.00;97573.23;109357;1251;59101;-74
2023/12/02 04:42:25;;;;;;;48.70;34.50;;;;;;;-1.03;100.00;97574.52;109565;1250;66970;-73
2023/12/02 04:44:51;;;;;;;49.10;31.90;;;;;;;-1.05;100.00;97572.16;109521;1251;60039;-74
2023/12/02 04:47:18;;;;;;;50.40;34.30;;;;;;;-1.07;100.00;97582.35;109542;1251;64900;-74
2023/12/02 04:49:45;;;;;;;42.00;30.70;;;;;;;-1.08;100.00;97582.40;109540;1251;59056;-73
2023/12/02 04:52:11;;;;;;;44.30;30.90;;;;;;;-1.09;100.00;97580.87;109351;1251;59003;-73
2023/12/02 04:54:38;;;;;;;43.80;30.20;;;;;;;-1.08;100.00;97570.39;109549;1251;67028;-72
2023/12/02 04:57:04;;;;;;;45.90;32.40;;;;;;;-1.09;100.00;97561.54;108823;1251;1002286;-72
2023/12/02 04:59:31;;;;;;;43.80;30.60;;;;;;;-1.09;100.00;97559.08;109548;1251;65034;-74
2023/12/02 05:01:58;;;;;;;48.70;33.80;;;;;;;-1.08;100.00;97559.21;109575;1253;59035;-74
2023/12/02 05:04:24;;;;;;;48.40;32.90;;;;;;;-1.09;100.00;97563.98;109235;1251;59397;-74
2023/12/02 05:06:51;;;;;;;43.00;29.80;;;;;;;-1.09;100.00;97562.59;109627;1250;66812;-74
2023/12/02 05:09:18;;;;;;;41.20;30.00;;;;;;;-1.10;100.00;97565.21;109601;1250;60257;-74
2023/12/02 05:11:45;;;;;;;43.80;28.70;;;;;;;-1.10;100.00;97578.66;109531;1251;65421;-74
2023/12/02 05:14:12;;;;;;;44.20;29.50;;;;;;;-1.10;100.00;97582.48;109592;1251;59252;-75
2023/12/02 05:16:44;;;;;;;39.80;28.90;;;;;;;-1.09;100.00;97571.47;109600;1251;58956;-75
2023/12/02 05:19:11;;;;;;;41.50;28.50;;;;;;;-1.09;100.00;97558.23;109605;1251;67180;-74
2023/12/02 05:21:37;;;;;;;42.50;29.10;;;;;;;-1.11;100.00;97553.09;109609;1251;61233;-74
2023/12/02 05:24:04;;;;;;;38.50;28.60;;;;;;;-1.12;100.00;97561.10;109599;1251;65043;-75
2023/12/02 05:26:31;;;;;;;34.30;25.30;;;;;;;-1.10;100.00;97567.33;109524;1251;58964;-75
2023/12/02 05:29:00;;;;;;;31.70;24.70;;;;;;;-1.12;100.00;97573.48;108814;1251;1002515;-75
2023/12/02 05:31:27;;;;;;;33.60;24.00;;;;;;;-1.12;100.00;97572.82;109547;1250;66082;-74
2023/12/02 05:33:55;;;;;;;31.80;21.60;;;;;;;-1.13;100.00;97571.98;109563;1251;60099;-73
2023/12/02 05:36:21;;;;;;;32.20;23.50;;;;;;;-1.14;100.00;97571.84;109571;1251;65097;-74
2023/12/02 05:38:48;;;;;;;29.10;22.60;;;;;;;-1.16;100.00;97568.27;108822;1251;1002346;-74
2023/12/02 05:41:15;;;;;;;28.60;20.80;;;;;;;-1.17;100.00;97566.58;109326;1251;58943;-74
2023/12/02 05:43:41;;;;;;;29.30;20.50;;;;;;;-1.18;100.00;97572.19;109351;1250;67072;-73
2023/12/02 05:46:15;;;;;;;31.00;21.70;;;;;;;-1.20;100.00;97570.50;109594;1250;61319;-74
2023/12/02 05:48:43;;;;;;;30.80;22.10;;;;;;;-1.20;100.00;97552.05;109592;1251;64026;-75
2023/12/02 05:51:12;;;;;;;28.70;20.60;;;;;;;-1.21;100.00;97541.30;109535;1251;58987;-74
2023/12/02 05:53:41;;;;;;;29.20;21.40;;;;;;;-1.22;100.00;97556.33;109618;1251;59011;-74
2023/12/02 05:56:08;;;;;;;28.50;19.50;;;;;;;-1.22;100.00;97569.90;109570;1251;65860;-74
2023/12/02 05:58:35;;;;;;;27.80;19.70;;;;;;;-1.22;100.00;97582.79;109424;1251;61079;-74
2023/12/02 06:01:02;;;;;;;28.50;20.50;;;;;;;-1.23;100.00;97570.15;109538;1251;65034;-74
2023/12/02 06:03:29;;;;;;;28.30;21.30;;;;;;;-1.22;100.00;97545.20;109562;1251;59031;-74
2023/12/02 06:05:56;;;;;;;29.00;21.90;;;;;;;-1.22;100.00;97531.95;109617;1251;59222;-74
2023/12/02 06:08:22;;;;;;;28.80;21.20;;;;;;;-1.26;100.00;97537.14;109553;1251;67015;-74
2023/12/02 06:10:49;;;;;;;28.50;19.90;;;;;;;-1.27;100.00;97551.33;109581;1251;59827;-76
2023/12/02 06:13:16;;;;;;;31.60;20.60;;;;;;;-1.29;100.00;97553.16;109560;1251;65079;-74
2023/12/02 06:15:42;;;;;;;27.20;20.40;;;;;;;-1.32;100.00;97537.41;109378;1251;59025;-74
2023/12/02 06:18:09;;;;;;;26.90;18.70;;;;;;;-1.35;100.00;97534.21;109561;1251;58983;-73
2023/12/02 06:20:35;;;;;;;27.40;19.00;;;;;;;-1.36;100.00;97533.23;109564;1251;66034;-74
2023/12/02 06:23:02;;;;;;;28.20;19.50;;;;;;;-1.37;100.00;97530.83;108838;1255;1002425;-75
2023/12/02 06:25:29;;;;;;;28.10;19.70;;;;;;;-1.36;100.00;97513.88;109586;1251;62758;-74
2023/12/02 06:27:56;;;;;;;27.70;19.80;;;;;;;-1.36;100.00;97505.02;109554;1251;58954;-74
2023/12/02 06:30:22;;;;;;;26.80;18.60;;;;;;;-1.37;100.00;97510.08;109620;1251;58965;-75
2023/12/02 06:32:49;;;;;;;26.30;18.20;;;;;;;-1.38;100.00;97520.42;109615;1251;66919;-74
2023/12/02 06:35:16;;;;;;;26.40;18.70;;;;;;;-1.39;100.00;97518.89;108816;1250;1002350;-75
2023/12/02 06:37:43;;;;;;;25.10;17.30;;;;;;;-1.39;100.00;97531.96;109547;1251;65023;-75
2023/12/02 06:40:10;;;;;;;28.20;19.90;;;;;;;-1.39;100.00;97545.21;109503;1251;59211;-73
2023/12/02 06:42:37;;;;;;;29.30;18.40;;;;;;;-1.38;100.00;97545.52;109629;1251;59030;-74
2023/12/02 06:45:04;;;;;;;23.00;15.90;;;;;;;-1.37;100.00;97553.64;109593;1251;67012;-73
2023/12/02 06:47:31;;;;;;;25.50;17.50;;;;;;;-1.36;100.00;97563.51;109549;1251;61195;-74
2023/12/02 06:49:58;;;;;;;21.50;15.90;;;;;;;-1.35;100.00;97560.70;109321;1251;64185;-74
2023/12/02 06:52:24;;;;;;;22.30;14.60;;;;;;;-1.37;100.00;97550.84;108819;1251;1002613;-73
2023/12/02 06:54:51;;;;;;;18.70;13.90;;;;;;;-1.37;100.00;97539.89;109619;1251;59098;-74
2023/12/02 06:57:17;;;;;;;20.10;14.50;;;;;;;-1.37;100.00;97539.72;109552;1251;59038;-73
2023/12/02 06:59:45;;;;;;;18.70;12.40;;;;;;;-1.38;100.00;97540.96;109587;1250;59366;-74
2023/12/02 07:02:13;;;;;;;20.00;13.90;;;;;;;-1.37;100.00;97536.73;109533;1251;65022;-75
2023/12/02 07:04:39;;;;;;;18.70;13.20;;;;;;;-1.33;100.00;97529.24;109412;1254;59109;-75
2023/12/02 07:07:06;;;;;;;18.80;12.90;;;;;;;-1.28;100.00;97529.05;109554;1251;58868;-75
2023/12/02 07:09:32;;;;;;;20.00;14.50;;;;;;;-1.26;100.00;97527.92;109344;1251;67179;-74
2023/12/02 07:11:59;;;;;;;20.80;14.00;;;;;;;-1.23;100.00;97532.88;109579;1251;61086;-75
2023/12/02 07:14:26;;;;;;;19.40;13.90;;;;;;;-1.23;100.00;97536.69;109581;1251;63701;-74
2023/12/02 07:16:53;;;;;;;22.20;14.80;;;;;;;-1.23;100.00;97541.39;109485;1251;58976;-74
2023/12/02 07:19:20;;;;;;;19.80;13.70;;;;;;;-1.25;100.00;97554.55;109583;1251;59086;-75
2023/12/02 07:21:46;;;;;;;20.10;14.30;;;;;;;-1.26;100.00;97563.31;109568;1254;66980;-75
2023/12/02 07:24:14;;;;;;;21.00;14.70;;;;;;;-1.27;100.00;97569.44;109604;1251;60977;-75
2023/12/02 07:26:40;;;;;;;21.00;15.70;;;;;;;-1.27;100.00;97583.20;109290;1256;65064;-74
2023/12/02 07:29:07;;;;;;;23.80;16.20;;;;;;;-1.28;100.00;97592.48;109509;1251;59255;-75
2023/12/02 07:31:33;;;;;;;17.70;14.00;;;;;;;-1.28;100.00;97597.89;109607;1251;58973;-75
2023/12/02 07:34:00;;;;;;;21.30;15.30;;;;;;;-1.29;100.00;97600.88;109551;1251;66765;-73
2023/12/02 07:36:26;;;;;;;22.60;16.20;;;;;;;-1.29;100.00;97602.63;108862;1251;1002556;-75
2023/12/02 07:38:53;;;;;;;21.90;15.10;;;;;;;-1.29;100.00;97604.55;109304;1251;63768;-74
2023/12/02 07:41:20;;;;;;;21.60;16.90;;;;;;;-1.30;100.00;97603.38;109528;1251;59012;-75
2023/12/02 07:43:47;;;;;;;21.70;15.20;;;;;;;-1.31;100.00;97599.40;109560;1251;59010;-74
2023/12/02 07:46:13;;;;;;;17.90;14.90;;;;;;;-1.29;100.00;97605.60;109579;1251;67048;-74
2023/12/02 07:48:40;;;;;;;21.60;15.30;;;;;;;-1.27;100.00;97599.95;109569;1251;61157;-75
2023/12/02 07:51:07;;;;;;;17.30;14.30;;;;;;;-1.28;100.00;97595.27;109578;1251;64889;-75
2023/12/02 07:53:33;;;;;;;18.10;13.30;;;;;;;-1.30;100.00;97584.56;109276;1251;58973;-75
2023/12/02 07:56:00;;;;;;;18.00;12.90;;;;;;;-1.35;100.00;97574.11;109553;1251;58884;-74
2023/12/02 07:58:27;;;;;;;18.00;14.50;;;;;;;-1.38;100.00;97575.63;109306;1251;67023;-74
2023/12/02 08:00:53;;;;;;;15.70;12.60;;;;;;;-1.39;100.00;97574.80;109560;1251;60206;-74
2023/12/02 08:03:20;;;;;;;21.40;15.30;;;;;;;-1.38;100.00;97578.63;109507;1251;65099;-74
2023/12/02 08:05:47;;;;;;;23.50;17.60;;;;;;;-1.37;100.00;97572.13;109553;1251;58950;-75
2023/12/02 08:08:13;;;;;;;22.90;17.40;;;;;;;-1.34;100.00;97573.20;109556;1251;59107;-74
2023/12/02 08:10:40;;;;;;;20.60;15.50;;;;;;;-1.29;100.00;97574.73;109529;1250;67023;-74
2023/12/02 08:13:06;;;;;;;24.20;16.70;;;;;;;-1.26;100.00;97578.27;109603;1251;61517;-75
2023/12/02 08:15:33;;;;;;;20.00;15.00;;;;;;;-1.19;100.00;97575.55;109565;1251;65039;-74
2023/12/02 08:17:59;;;;;;;18.20;13.90;;;;;;;-1.15;100.00;97563.19;109543;1251;58972;-75
2023/12/02 08:20:26;;;;;;;16.50;13.50;;;;;;;-1.13;100.00;97567.59;109566;1251;59041;-75
2023/12/02 08:22:53;;;;;;;17.60;13.40;;;;;;;-1.08;100.00;97571.41;109359;1251;67051;-75
2023/12/02 08:25:19;;;;;;;17.30;12.80;;;;;;;-1.03;100.00;97569.11;109534;1251;61138;-74
2023/12/02 08:27:46;;;;;;;18.10;14.40;;;;;;;-0.98;100.00;97562.09;109517;1251;64825;-75
2023/12/02 08:30:13;;;;;;;19.90;14.80;;;;;;;-0.94;100.00;97560.52;109536;1251;59384;-74
2023/12/02 08:32:40;;;;;;;18.80;14.00;;;;;;;-0.90;100.00;97556.66;109321;1251;59085;-74
2023/12/02 08:35:07;;;;;;;20.30;14.80;;;;;;;-0.81;100.00;97557.34;109539;1251;66849;-75
2023/12/02 08:37:33;;;;;;;15.10;11.90;;;;;;;-0.69;100.00;97555.41;109579;1251;61018;-74
2023/12/02 08:40:02;;;;;;;19.00;14.00;;;;;;;-0.61;100.00;97560.81;109510;1251;65007;-76
2023/12/02 08:42:29;;;;;;;14.50;10.60;;;;;;;-0.56;100.00;97559.20;109541;1251;59052;-75
2023/12/02 08:44:55;;;;;;;15.00;12.10;;;;;;;-0.55;100.00;97556.35;109580;1251;58860;-74
2023/12/02 08:47:22;;;;;;;17.60;12.80;;;;;;;-0.57;100.00;97560.96;109475;1250;64775;-75
2023/12/02 08:49:49;;;;;;;15.50;11.70;;;;;;;-0.60;100.00;97571.59;109571;1251;61232;-75
2023/12/02 08:52:15;;;;;;;17.20;12.40;;;;;;;-0.62;100.00;97582.67;108763;1251;1002669;-74
2023/12/02 08:54:42;;;;;;;16.70;12.10;;;;;;;-0.60;100.00;97589.06;109564;1251;59269;-75
2023/12/02 08:57:08;;;;;;;18.00;12.40;;;;;;;-0.62;100.00;97592.79;109550;1251;58963;-75
2023/12/02 08:59:35;;;;;;;17.40;12.50;;;;;;;-0.67;100.00;97590.92;109573;1251;67010;-74
2023/12/02 09:02:05;;;;;;;14.40;11.30;;;;;;;-0.72;100.00;97595.11;109521;1251;60937;-74
2023/12/02 09:04:32;;;;;;;18.50;12.90;;;;;;;-0.75;100.00;97587.42;109220;1251;64894;-74
2023/12/02 09:06:58;;;;;;;21.50;14.10;;;;;;;-0.75;100.00;97581.14;109546;1251;59059;-75
2023/12/02 09:09:25;;;;;;;19.00;13.30;;;;;;;-0.73;100.00;97595.53;109565;1251;59062;-75
2023/12/02 09:11:52;;;;;;;17.30;12.90;;;;;;;-0.72;100.00;97610.98;109538;1251;67017;-75
2023/12/02 09:14:18;;;;;;;20.70;14.90;;;;;;;-0.71;100.00;97612.34;109381;1251;61076;-75
2023/12/02 09:16:48;;;;;;;20.00;15.20;;;;;;;-0.71;100.00;97610.93;109526;1251;64095;-75
2023/12/02 09:19:50;;;;;;;20.10;14.20;;;;;;;-0.71;100.00;97607.28;109536;1251;58996;-77
2023/12/02 09:22:46;;;;;;;19.20;14.00;;;;;;;-0.74;100.00;97605.15;109628;1251;58992;-73
2023/12/02 09:25:26;;;;;;;20.60;13.80;;;;;;;-0.82;100.00;97606.02;109311;1251;67233;-75
2023/12/02 09:28:09;;;;;;;19.80;13.20;;;;;;;-0.84;100.00;97605.06;109598;1250;61201;-76
2023/12/02 09:31:00;;;;;;;17.00;12.10;;;;;;;-0.82;100.00;97594.52;109604;1251;63011;-75
2023/12/02 09:33:27;;;;;;;15.90;10.90;;;;;;;-0.82;100.00;97593.30;109577;1251;59018;-74
2023/12/02 09:35:57;;;;;;;15.10;11.90;;;;;;;-0.81;100.00;97582.44;109599;1251;58967;-75
2023/12/02 09:38:25;;;;;;;18.80;12.20;;;;;;;-0.75;100.00;97575.39;109573;1251;67028;-76
2023/12/02 09:40:57;;;;;;;17.30;13.20;;;;;;;-0.69;100.00;97577.70;109563;1254;60984;-74
2023/12/02 09:43:54;;;;;;;17.00;12.40;;;;;;;-0.61;100.00;97579.98;109518;1251;64033;-74
2023/12/02 09:46:27;;;;;;;16.80;12.80;;;;;;;-0.54;100.00;97576.02;109231;1251;59038;-76
2023/12/02 09:49:08;;;;;;;17.90;13.00;;;;;;;-0.48;100.00;97578.16;109535;1251;59049;-74
2023/12/02 09:52:08;;;;;;;18.20;12.90;;;;;;;-0.40;100.00;97566.48;109535;1251;66124;-75
2023/12/02 09:54:51;;;;;;;18.20;14.10;;;;;;;-0.32;100.00;97558.23;108951;1259;60026;-76
2023/12/02 09:57:38;;;;;;;15.40;12.00;;;;;;;-0.27;100.00;97564.49;108163;1259;1002538;-76
2023/12/02 10:00:15;;;;;;;18.90;14.00;;;;;;;-0.29;100.00;97578.02;108931;1259;59056;-75
2023/12/02 10:03:12;;;;;;;19.00;13.30;;;;;;;-0.36;100.00;97578.85;108935;1259;59016;-74
2023/12/02 10:05:56;;;;;;;19.90;13.00;;;;;;;-0.43;100.00;97568.73;108865;1259;64768;-75
2023/12/02 10:08:38;;;;;;;20.00;13.20;;;;;;;-0.45;100.00;97557.63;108910;1259;61045;-76
2023/12/02 10:11:20;;;;;;;18.00;13.10;;;;;;;-0.46;100.00;97555.41;108940;1259;65186;-75
2023/12/02 10:17:04;;;;;;;16.50;12.00;;;;;;;-0.46;100.00;97541.25;108757;1259;59057;-75
2023/12/02 10:19:45;;;;;;;19.70;13.20;;;;;;;-0.44;100.00;97545.55;108936;1259;67154;-76
2023/12/02 10:22:16;;;;;;;16.70;12.50;;;;;;;-0.47;100.00;97546.90;108938;1259;60144;-76
2023/12/02 10:24:49;;;;;;;19.70;12.90;;;;;;;-0.52;100.00;97545.05;108926;1259;64068;-74
2023/12/02 10:27:17;;;;;;;17.90;13.30;;;;;;;-0.56;100.00;97553.09;108899;1259;59752;-74
2023/12/02 10:30:11;;;;;;;20.90;14.80;;;;;;;-0.56;100.00;97556.04;108961;1259;59462;-75
2023/12/02 10:33:02;;;;;;;20.00;14.50;;;;;;;-0.53;100.00;97551.02;109437;1255;66211;-74
2023/12/02 10:35:34;;;;;;;21.80;15.80;;;;;;;-0.55;100.00;97539.77;109578;1251;61159;-74
2023/12/02 10:38:37;;;;;;;21.00;14.50;;;;;;;-0.57;100.00;97540.41;109545;1251;65061;-75
2023/12/02 10:41:22;;;;;;;21.00;14.30;;;;;;;-0.65;100.00;97540.56;109303;1251;59025;-75
2023/12/02 10:44:01;;;;;;;19.90;13.90;;;;;;;-0.73;100.00;97542.87;109573;1251;59361;-76
2023/12/02 10:46:31;;;;;;;22.60;15.80;;;;;;;-0.74;100.00;97549.55;109616;1251;67126;-76
2023/12/02 10:48:59;;;;;;;21.90;16.30;;;;;;;-0.73;100.00;97548.27;109590;1250;61437;-75
2023/12/02 10:51:27;;;;;;;23.40;16.10;;;;;;;-0.77;100.00;97544.10;109550;1251;65223;-75
2023/12/02 10:54:04;;;;;;;21.20;15.10;;;;;;;-0.80;100.00;97551.38;109595;1251;59042;-74
2023/12/02 10:56:35;;;;;;;24.00;17.30;;;;;;;-0.87;100.00;97562.11;109548;1251;59485;-73
2023/12/02 10:59:01;;;;;;;22.50;15.70;;;;;;;-0.94;100.00;97571.52;109530;1251;65986;-73
2023/12/02 11:01:53;;;;;;;23.10;15.60;;;;;;;-0.99;100.00;97567.70;109542;1251;60078;-73
2023/12/02 11:04:33;;;;;;;24.30;15.80;;;;;;;-1.02;100.00;97551.30;109559;1251;65054;-74
2023/12/02 11:07:03;;;;;;;;;;;;;;;-1.03;100.00;97550.26;109570;1251;58935;-73
2023/12/02 11:09:48;;;;;;;;;;;;;;;-1.06;100.00;97554.58;109565;1251;58969;-73
2023/12/02 11:12:31;;;;;;;23.40;16.00;;;;;;;-1.11;100.00;97552.91;109538;1251;67323;-72